Time;durP1;ratioP1;P1;durP2;ratioP2;P2;SDS_P1;SDS_P2;PMS_P1;PMS_P2;Temp;Humidity;BMP_temperature;BMP_pressure;BME280_temperature;BME280_humidity;BME280_pressure;Samples;Min_cycle;Max_cycle;Signal;HPM_P1;HPM_P2
2023/05/03 00:00:07;;;;;;;0.55;0.32;;;;;;;;;;5025001;28;20087;-66
2023/05/03 00:02:34;;;;;;;1.35;0.52;;;;;;;;;;5026254;28;20110;-66
2023/05/03 00:05:00;;;;;;;0.68;0.45;;;;;;;;;;5043539;28;20057;-66
2023/05/03 00:07:26;;;;;;;0.47;0.30;;;;;;;;;;5025182;28;20047;-67
2023/05/03 00:09:52;;;;;;;0.10;0.10;;;;;;;;;;5025530;28;20476;-66
2023/05/03 00:12:18;;;;;;;0.73;0.20;;;;;;;;;;5025613;28;20037;-67
2023/05/03 00:14:45;;;;;;;0.20;0.20;;;;;;;;;;5025500;28;20060;-66
2023/05/03 00:17:11;;;;;;;0.20;0.13;;;;;;;;;;5026225;28;20049;-67
2023/05/03 00:19:38;;;;;;;0.20;0.20;;;;;;;;;;5043751;28;20044;-66
2023/05/03 00:22:04;;;;;;;0.52;0.20;;;;;;;;;;5024742;28;20053;-66
2023/05/03 00:24:30;;;;;;;0.82;0.20;;;;;;;;;;5043454;28;20395;-66
2023/05/03 00:26:56;;;;;;;0.20;0.20;;;;;;;;;;5025140;28;20055;-66
2023/05/03 00:29:22;;;;;;;0.28;0.20;;;;;;;;;;5042694;28;20128;-66
2023/05/03 00:31:48;;;;;;;0.20;0.20;;;;;;;;;;5025024;28;20045;-67
2023/05/03 00:34:15;;;;;;;0.28;0.13;;;;;;;;;;5026422;28;20041;-66
2023/05/03 00:36:41;;;;;;;0.10;0.10;;;;;;;;;;5018395;28;20104;-66
2023/05/03 00:39:07;;;;;;;2.10;0.45;;;;;;;;;;5023160;28;20045;-66
2023/05/03 00:41:33;;;;;;;0.25;0.20;;;;;;;;;;5043326;28;20535;-66
2023/05/03 00:43:59;;;;;;;0.73;0.30;;;;;;;;;;5024358;28;20033;-66
2023/05/03 00:46:25;;;;;;;1.30;0.57;;;;;;;;;;5043303;28;20052;-66
2023/05/03 00:48:51;;;;;;;0.43;0.32;;;;;;;;;;5025108;28;20127;-67
2023/05/03 00:51:18;;;;;;;0.20;0.20;;;;;;;;;;5024621;28;20102;-66
2023/05/03 00:53:44;;;;;;;0.65;0.20;;;;;;;;;;5025772;28;20041;-66
2023/05/03 00:56:10;;;;;;;0.35;0.30;;;;;;;;;;5025767;28;20040;-66
2023/05/03 00:58:39;;;;;;;0.30;0.10;;;;;;;;;;5042717;28;20052;-66
2023/05/03 01:01:08;;;;;;;0.25;0.25;;;;;;;;;;5025153;28;20389;-66
2023/05/03 01:03:36;;;;;;;0.70;0.20;;;;;;;;;;5042609;28;20052;-66
2023/05/03 01:06:26;;;;;;;0.52;0.15;;;;;;;;;;5042783;28;20071;-66
2023/05/03 01:09:01;;;;;;;0.10;0.10;;;;;;;;;;5022920;28;20589;-67
2023/05/03 01:11:31;;;;;;;0.25;0.20;;;;;;;;;;5024528;28;20790;-67
2023/05/03 01:14:05;;;;;;;0.52;0.30;;;;;;;;;;5025040;28;20455;-66
2023/05/03 01:16:36;;;;;;;0.35;0.35;;;;;;;;;;5025191;28;20045;-67
2023/05/03 01:19:13;;;;;;;0.20;0.20;;;;;;;;;;5026452;28;20056;-66
2023/05/03 01:21:42;;;;;;;0.20;0.20;;;;;;;;;;5046771;28;20529;-66
2023/05/03 01:24:13;;;;;;;0.10;0.10;;;;;;;;;;5028967;28;20072;-67
2023/05/03 01:26:39;;;;;;;0.20;0.20;;;;;;;;;;5028640;28;20041;-66
2023/05/03 01:29:06;;;;;;;0.43;0.20;;;;;;;;;;5028835;28;20045;-66
2023/05/03 01:31:42;;;;;;;0.20;0.20;;;;;;;;;;5046403;28;20040;-66
2023/05/03 01:34:22;;;;;;;0.65;0.45;;;;;;;;;;5046871;28;20077;-66
2023/05/03 01:36:48;;;;;;;0.88;0.40;;;;;;;;;;5028405;28;20049;-66
2023/05/03 01:39:19;;;;;;;0.22;0.22;;;;;;;;;;5028897;28;20064;-66
2023/05/03 01:41:46;;;;;;;0.57;0.35;;;;;;;;;;5025099;28;20080;-67
2023/05/03 01:44:12;;;;;;;0.30;0.22;;;;;;;;;;5029335;28;20102;-66
2023/05/03 01:46:45;;;;;;;0.28;0.20;;;;;;;;;;5045532;28;20100;-66
2023/05/03 01:49:11;;;;;;;0.63;0.40;;;;;;;;;;5027223;28;20040;-66
2023/05/03 01:51:37;;;;;;;1.23;0.40;;;;;;;;;;5045854;28;20048;-66
2023/05/03 01:54:03;;;;;;;1.55;0.32;;;;;;;;;;5027379;28;20048;-66
2023/05/03 01:56:30;;;;;;;0.43;0.20;;;;;;;;;;5046142;28;20056;-66
2023/05/03 01:58:56;;;;;;;0.32;0.32;;;;;;;;;;5046051;28;20095;-66
2023/05/03 02:01:22;;;;;;;0.20;0.20;;;;;;;;;;5045788;28;20124;-66
2023/05/03 02:03:48;;;;;;;0.25;0.25;;;;;;;;;;5046006;28;20120;-66
2023/05/03 02:06:14;;;;;;;0.47;0.30;;;;;;;;;;5029076;28;20489;-66
2023/05/03 02:08:40;;;;;;;0.20;0.20;;;;;;;;;;5028233;28;20048;-66
2023/05/03 02:11:06;;;;;;;0.70;0.20;;;;;;;;;;5045423;28;20056;-66
2023/05/03 02:13:32;;;;;;;0.20;0.20;;;;;;;;;;5046090;28;20040;-66
2023/05/03 02:15:58;;;;;;;0.25;0.25;;;;;;;;;;5044844;28;20103;-66
2023/05/03 02:18:25;;;;;;;0.80;0.52;;;;;;;;;;5046036;28;20040;-66
2023/05/03 02:20:51;;;;;;;0.15;0.15;;;;;;;;;;5025584;28;20033;-66
2023/05/03 02:23:17;;;;;;;0.20;0.20;;;;;;;;;;5027910;28;20667;-67
2023/05/03 02:25:43;;;;;;;0.35;0.35;;;;;;;;;;5043170;28;20045;-66
2023/05/03 02:28:09;;;;;;;0.30;0.28;;;;;;;;;;5027245;28;20037;-66
2023/05/03 02:30:35;;;;;;;0.20;0.20;;;;;;;;;;5045667;28;20289;-66
2023/05/03 02:33:01;;;;;;;0.10;0.10;;;;;;;;;;5027337;28;20253;-66
2023/05/03 02:35:27;;;;;;;0.20;0.20;;;;;;;;;;5044923;28;20049;-66
2023/05/03 02:37:53;;;;;;;0.20;0.20;;;;;;;;;;5027066;28;20053;-66
2023/05/03 02:40:19;;;;;;;0.10;0.10;;;;;;;;;;5045512;28;20033;-66
2023/05/03 02:42:45;;;;;;;0.13;0.13;;;;;;;;;;5026618;28;20411;-66
2023/05/03 02:45:11;;;;;;;0.20;0.10;;;;;;;;;;5046449;28;20116;-66
2023/05/03 02:47:37;;;;;;;0.20;0.20;;;;;;;;;;5027321;28;20740;-66
2023/05/03 02:50:03;;;;;;;1.05;0.60;;;;;;;;;;5044251;28;20053;-66
2023/05/03 02:52:29;;;;;;;0.15;0.15;;;;;;;;;;5045281;28;20041;-66
2023/05/03 02:54:55;;;;;;;0.35;0.35;;;;;;;;;;5044770;28;20084;-66
2023/05/03 02:57:21;;;;;;;0.20;0.20;;;;;;;;;;5044621;28;20076;-66
2023/05/03 02:59:47;;;;;;;1.40;0.22;;;;;;;;;;5045065;28;20950;-66
2023/05/03 03:02:13;;;;;;;0.28;0.28;;;;;;;;;;5046036;28;20414;-67
2023/05/03 03:04:39;;;;;;;0.30;0.20;;;;;;;;;;5044463;28;20037;-66
2023/05/03 03:07:05;;;;;;;0.20;0.20;;;;;;;;;;5044969;28;20063;-66
2023/05/03 03:09:31;;;;;;;0.20;0.20;;;;;;;;;;5027176;28;20041;-66
2023/05/03 03:11:57;;;;;;;0.10;0.10;;;;;;;;;;5044334;28;20053;-66
2023/05/03 03:14:23;;;;;;;0.93;0.20;;;;;;;;;;5027292;28;20057;-66
2023/05/03 03:16:51;;;;;;;0.75;0.28;;;;;;;;;;5044502;28;20497;-66
2023/05/03 03:19:17;;;;;;;0.35;0.30;;;;;;;;;;5026672;28;20784;-66
2023/05/03 03:21:43;;;;;;;0.20;0.20;;;;;;;;;;5045348;28;20500;-66
2023/05/03 03:24:09;;;;;;;0.50;0.30;;;;;;;;;;5025753;28;20043;-66
2023/05/03 03:26:35;;;;;;;0.60;0.30;;;;;;;;;;5044630;28;20045;-67
2023/05/03 03:29:01;;;;;;;0.10;0.10;;;;;;;;;;5044567;28;20182;-67
2023/05/03 03:31:27;;;;;;;0.20;0.20;;;;;;;;;;5025880;28;20071;-66
2023/05/03 03:33:53;;;;;;;0.40;0.20;;;;;;;;;;5044067;28;20048;-66
2023/05/03 03:36:19;;;;;;;0.20;0.20;;;;;;;;;;5044344;28;20044;-66
2023/05/03 03:38:45;;;;;;;0.40;0.25;;;;;;;;;;5025841;28;20040;-66
2023/05/03 03:41:12;;;;;;;0.95;0.20;;;;;;;;;;5044429;28;20045;-66
2023/05/03 03:43:38;;;;;;;0.60;0.25;;;;;;;;;;5026377;28;20045;-66
2023/05/03 03:46:04;;;;;;;0.20;0.20;;;;;;;;;;5025368;28;20122;-66
2023/05/03 03:48:30;;;;;;;1.98;0.40;;;;;;;;;;5026289;28;20495;-66
2023/05/03 03:50:56;;;;;;;0.77;0.20;;;;;;;;;;5043835;28;20048;-66
2023/05/03 03:53:22;;;;;;;0.30;0.30;;;;;;;;;;5025438;28;20045;-66
2023/05/03 03:55:48;;;;;;;0.40;0.30;;;;;;;;;;5043569;28;20041;-66
2023/05/03 03:58:14;;;;;;;0.35;0.35;;;;;;;;;;5027168;28;20063;-65
2023/05/03 04:00:40;;;;;;;0.20;0.20;;;;;;;;;;5026375;28;20067;-66
2023/05/03 04:03:06;;;;;;;0.40;0.40;;;;;;;;;;5026043;28;20049;-66
2023/05/03 04:05:32;;;;;;;0.77;0.40;;;;;;;;;;5043880;28;20045;-66
2023/05/03 04:07:58;;;;;;;0.20;0.20;;;;;;;;;;5042835;28;20051;-66
2023/05/03 04:10:24;;;;;;;0.20;0.20;;;;;;;;;;5043863;28;20037;-66
2023/05/03 04:12:50;;;;;;;0.80;0.20;;;;;;;;;;5025465;28;20050;-66
2023/05/03 04:15:16;;;;;;;0.10;0.10;;;;;;;;;;5025768;28;20395;-66
2023/05/03 04:17:42;;;;;;;0.20;0.20;;;;;;;;;;5026532;28;20128;-66
2023/05/03 04:20:12;;;;;;;0.30;0.30;;;;;;;;;;5043260;28;20132;-66
2023/05/03 04:22:39;;;;;;;1.15;0.30;;;;;;;;;;5025577;28;20041;-66
2023/05/03 04:25:07;;;;;;;0.40;0.30;;;;;;;;;;5043446;28;20202;-66
2023/05/03 04:27:33;;;;;;;0.20;0.20;;;;;;;;;;5043062;28;20040;-66
2023/05/03 04:29:59;;;;;;;0.20;0.20;;;;;;;;;;5025268;28;20044;-66
2023/05/03 04:32:25;;;;;;;0.32;0.28;;;;;;;;;;5025866;28;20055;-66
2023/05/03 04:34:53;;;;;;;0.22;0.22;;;;;;;;;;5042538;28;20056;-66
2023/05/03 04:37:19;;;;;;;0.30;0.30;;;;;;;;;;5025566;28;20119;-66
2023/05/03 04:39:45;;;;;;;0.20;0.20;;;;;;;;;;5025738;28;20037;-66
2023/05/03 04:42:14;;;;;;;0.17;0.17;;;;;;;;;;5043315;28;20049;-66
2023/05/03 04:44:44;;;;;;;0.30;0.30;;;;;;;;;;5044095;28;20052;-66
2023/05/03 04:47:10;;;;;;;0.35;0.32;;;;;;;;;;5025725;28;20126;-66
2023/05/03 04:49:38;;;;;;;1.73;0.43;;;;;;;;;;5024844;28;20045;-67
2023/05/03 04:52:04;;;;;;;0.10;0.10;;;;;;;;;;5024693;28;20363;-66
2023/05/03 04:54:31;;;;;;;0.20;0.20;;;;;;;;;;5043003;28;20072;-66
2023/05/03 04:56:57;;;;;;;0.93;0.20;;;;;;;;;;5041808;28;20072;-66
2023/05/03 04:59:23;;;;;;;0.20;0.20;;;;;;;;;;5042430;28;20079;-66
2023/05/03 05:01:49;;;;;;;0.20;0.20;;;;;;;;;;5024246;28;20056;-66
2023/05/03 05:04:15;;;;;;;0.20;0.20;;;;;;;;;;5042282;28;20052;-66
2023/05/03 05:06:41;;;;;;;0.20;0.20;;;;;;;;;;5043552;28;20124;-66
2023/05/03 05:09:07;;;;;;;0.10;0.10;;;;;;;;;;5042575;28;21724;-66
2023/05/03 05:11:33;;;;;;;0.10;0.10;;;;;;;;;;5042579;28;20053;-66
2023/05/03 05:13:59;;;;;;;0.15;0.10;;;;;;;;;;5025015;28;20049;-67
2023/05/03 05:16:25;;;;;;;0.17;0.17;;;;;;;;;;5042944;28;20689;-66
2023/05/03 05:18:51;;;;;;;0.10;0.10;;;;;;;;;;5042135;28;20044;-66
2023/05/03 05:21:17;;;;;;;0.20;0.20;;;;;;;;;;5025334;28;20049;-66
2023/05/03 05:23:43;;;;;;;0.20;0.20;;;;;;;;;;5042917;28;20041;-66
2023/05/03 05:26:09;;;;;;;0.00;0.00;;;;;;;;;;5042673;28;20041;-66
2023/05/03 05:28:35;;;;;;;0.10;0.10;;;;;;;;;;5025062;28;20498;-66
2023/05/03 05:31:01;;;;;;;0.03;0.03;;;;;;;;;;5041594;28;20041;-66
2023/05/03 05:33:27;;;;;;;0.15;0.08;;;;;;;;;;5043086;28;20047;-67
2023/05/03 05:35:53;;;;;;;0.10;0.10;;;;;;;;;;5042978;28;20411;-67
2023/05/03 05:38:19;;;;;;;0.00;0.00;;;;;;;;;;5043511;28;20044;-66
2023/05/03 05:40:45;;;;;;;0.17;0.17;;;;;;;;;;5025520;28;20511;-67
2023/05/03 05:43:11;;;;;;;0.32;0.20;;;;;;;;;;5025322;28;20123;-66
2023/05/03 05:45:37;;;;;;;0.10;0.03;;;;;;;;;;5041090;28;20044;-66
2023/05/03 05:48:04;;;;;;;0.65;0.30;;;;;;;;;;5042244;28;20072;-66
2023/05/03 05:50:30;;;;;;;0.80;0.30;;;;;;;;;;5042727;28;20449;-66
2023/05/03 05:52:56;;;;;;;0.20;0.20;;;;;;;;;;5039700;28;20550;-66
2023/05/03 05:55:22;;;;;;;0.10;0.10;;;;;;;;;;5043076;28;20079;-66
2023/05/03 05:57:48;;;;;;;0.10;0.10;;;;;;;;;;5037610;28;20045;-67
2023/05/03 06:00:16;;;;;;;0.20;0.20;;;;;;;;;;5043278;28;20052;-66
2023/05/03 06:02:42;;;;;;;0.28;0.20;;;;;;;;;;5042207;28;20048;-66
2023/05/03 06:05:08;;;;;;;0.38;0.20;;;;;;;;;;5027268;28;20053;-67
2023/05/03 06:07:35;;;;;;;0.10;0.10;;;;;;;;;;5046320;28;20040;-67
2023/05/03 06:10:01;;;;;;;0.20;0.20;;;;;;;;;;5046092;28;20045;-66
2023/05/03 06:12:27;;;;;;;0.10;0.10;;;;;;;;;;5046784;28;20095;-66
2023/05/03 06:14:53;;;;;;;0.20;0.20;;;;;;;;;;5045425;28;20149;-66
2023/05/03 06:17:21;;;;;;;0.45;0.30;;;;;;;;;;5046889;28;20041;-66
2023/05/03 06:19:48;;;;;;;0.40;0.20;;;;;;;;;;5045662;28;20049;-67
2023/05/03 06:22:14;;;;;;;0.50;0.30;;;;;;;;;;5047343;28;21040;-67
2023/05/03 06:24:40;;;;;;;0.30;0.30;;;;;;;;;;5029259;28;20049;-65
2023/05/03 06:27:06;;;;;;;0.15;0.15;;;;;;;;;;5027438;28;20798;-65
2023/05/03 06:29:32;;;;;;;0.20;0.20;;;;;;;;;;5046582;28;20041;-66
2023/05/03 06:31:59;;;;;;;0.30;0.28;;;;;;;;;;5028198;28;20099;-66
2023/05/03 06:34:25;;;;;;;0.40;0.20;;;;;;;;;;5045671;28;20049;-65
2023/05/03 06:36:51;;;;;;;1.48;0.57;;;;;;;;;;5028096;28;20041;-65
2023/05/03 06:39:17;;;;;;;0.30;0.30;;;;;;;;;;5046079;28;20501;-65
2023/05/03 06:41:43;;;;;;;0.65;0.40;;;;;;;;;;5028235;28;20072;-65
2023/05/03 06:44:10;;;;;;;2.80;0.50;;;;;;;;;;5045708;28;20562;-65
2023/05/03 06:46:36;;;;;;;0.28;0.28;;;;;;;;;;5028058;28;20056;-65
2023/05/03 06:49:02;;;;;;;0.20;0.20;;;;;;;;;;5028589;28;20132;-65
2023/05/03 06:51:31;;;;;;;0.73;0.32;;;;;;;;;;5027746;28;20076;-65
2023/05/03 06:54:05;;;;;;;1.83;0.30;;;;;;;;;;5021273;28;20140;-65
2023/05/03 06:56:31;;;;;;;0.57;0.40;;;;;;;;;;5027568;28;20686;-65
2023/05/03 06:58:57;;;;;;;0.93;0.20;;;;;;;;;;5027763;28;20044;-65
2023/05/03 07:01:23;;;;;;;0.75;0.40;;;;;;;;;;5042181;28;20103;-65
2023/05/03 07:03:49;;;;;;;1.33;0.40;;;;;;;;;;5047702;28;20671;-66
2023/05/03 07:06:15;;;;;;;1.05;0.40;;;;;;;;;;5045285;28;20037;-65
2023/05/03 07:08:41;;;;;;;1.00;0.40;;;;;;;;;;5028752;28;20051;-65
2023/05/03 07:11:08;;;;;;;0.63;0.50;;;;;;;;;;5026628;28;20052;-66
2023/05/03 07:13:34;;;;;;;0.30;0.30;;;;;;;;;;5046016;28;20875;-66
2023/05/03 07:16:00;;;;;;;0.30;0.20;;;;;;;;;;5026460;28;20400;-65
2023/05/03 07:18:26;;;;;;;2.28;0.40;;;;;;;;;;5045631;28;20041;-66
2023/05/03 07:20:53;;;;;;;1.05;0.40;;;;;;;;;;5045750;28;20056;-65
2023/05/03 07:23:18;;;;;;;0.25;0.20;;;;;;;;;;5026470;28;20140;-68
2023/05/03 07:25:45;;;;;;;1.35;0.40;;;;;;;;;;5028222;28;20131;-66
2023/05/03 07:28:11;;;;;;;1.40;0.30;;;;;;;;;;5046429;28;20099;-66
2023/05/03 07:30:37;;;;;;;1.67;0.40;;;;;;;;;;5045050;28;20515;-66
2023/05/03 07:33:03;;;;;;;0.20;0.20;;;;;;;;;;5045623;28;20091;-66
2023/05/03 07:35:30;;;;;;;0.20;0.20;;;;;;;;;;5044132;28;20045;-66
2023/05/03 07:37:56;;;;;;;0.65;0.20;;;;;;;;;;5035227;28;20454;-66
2023/05/03 07:40:22;;;;;;;0.20;0.20;;;;;;;;;;5045562;28;20128;-66
2023/05/03 07:42:48;;;;;;;1.02;0.40;;;;;;;;;;5045386;28;20553;-66
2023/05/03 07:45:14;;;;;;;0.38;0.28;;;;;;;;;;5045595;28;20124;-66
2023/05/03 07:47:40;;;;;;;0.20;0.20;;;;;;;;;;5046017;28;20648;-66
2023/05/03 07:50:07;;;;;;;0.10;0.10;;;;;;;;;;5027448;28;20055;-66
2023/05/03 07:52:37;;;;;;;0.40;0.25;;;;;;;;;;5027222;28;20381;-66
2023/05/03 07:55:03;;;;;;;0.47;0.25;;;;;;;;;;5027373;28;20543;-66
2023/05/03 07:57:29;;;;;;;1.98;0.40;;;;;;;;;;5027526;28;20049;-66
2023/05/03 07:59:56;;;;;;;0.28;0.25;;;;;;;;;;5026497;28;20059;-66
2023/05/03 08:02:22;;;;;;;0.28;0.13;;;;;;;;;;5027716;28;20044;-66
2023/05/03 08:04:48;;;;;;;0.30;0.30;;;;;;;;;;5044371;28;20045;-66
2023/05/03 08:07:14;;;;;;;0.20;0.20;;;;;;;;;;5027297;28;20059;-63
2023/05/03 08:09:40;;;;;;;0.65;0.30;;;;;;;;;;5045365;28;20072;-62
2023/05/03 08:12:06;;;;;;;0.38;0.38;;;;;;;;;;5044641;28;20409;-65
2023/05/03 08:14:33;;;;;;;0.30;0.20;;;;;;;;;;5044482;28;20045;-63
2023/05/03 08:16:59;;;;;;;0.30;0.30;;;;;;;;;;5026819;28;20080;-64
2023/05/03 08:19:25;;;;;;;0.30;0.30;;;;;;;;;;5026475;28;20079;-66
2023/05/03 08:21:53;;;;;;;1.90;0.63;;;;;;;;;;5025061;28;20072;-66
2023/05/03 08:24:19;;;;;;;1.08;0.43;;;;;;;;;;5026932;28;20055;-66
2023/05/03 08:26:47;;;;;;;0.40;0.40;;;;;;;;;;5024592;28;20056;-65
2023/05/03 08:29:13;;;;;;;0.68;0.43;;;;;;;;;;5029020;28;20053;-65
2023/05/03 08:31:39;;;;;;;0.70;0.50;;;;;;;;;;5046782;28;20774;-65
2023/05/03 08:34:06;;;;;;;0.55;0.55;;;;;;;;;;5029431;28;20064;-65
2023/05/03 08:36:33;;;;;;;0.88;0.88;;;;;;;;;;5026650;28;20505;-65
2023/05/03 08:38:59;;;;;;;0.85;0.77;;;;;;;;;;5025761;28;20553;-65
2023/05/03 08:41:29;;;;;;;0.50;0.50;;;;;;;;;;5032293;28;20053;-65
2023/05/03 08:43:56;;;;;;;0.30;0.30;;;;;;;;;;5044564;28;20053;-65
2023/05/03 08:46:22;;;;;;;0.98;0.50;;;;;;;;;;5026791;28;20064;-65
2023/05/03 08:48:49;;;;;;;0.40;0.40;;;;;;;;;;5026167;28;20446;-65
2023/05/03 08:51:19;;;;;;;0.40;0.40;;;;;;;;;;5043161;28;20594;-65
2023/05/03 08:53:45;;;;;;;0.30;0.30;;;;;;;;;;5025962;28;20060;-65
2023/05/03 08:56:15;;;;;;;0.30;0.30;;;;;;;;;;5044055;28;20048;-65
2023/05/03 08:58:42;;;;;;;0.50;0.50;;;;;;;;;;5044914;28;20053;-65
2023/05/03 09:01:09;;;;;;;0.30;0.30;;;;;;;;;;5044077;28;20094;-65
2023/05/03 09:03:36;;;;;;;1.27;0.40;;;;;;;;;;5043245;28;20632;-65
2023/05/03 09:06:02;;;;;;;0.30;0.25;;;;;;;;;;5026193;28;20045;-65
2023/05/03 09:08:29;;;;;;;0.88;0.32;;;;;;;;;;5026240;28;20086;-65
2023/05/03 09:10:56;;;;;;;0.77;0.20;;;;;;;;;;5043040;28;20053;-65
2023/05/03 09:13:29;;;;;;;0.38;0.30;;;;;;;;;;5026485;28;20053;-65
2023/05/03 09:15:55;;;;;;;1.00;0.35;;;;;;;;;;5025124;28;20112;-65
2023/05/03 09:18:22;;;;;;;0.75;0.30;;;;;;;;;;5026289;28;20064;-65
2023/05/03 09:20:52;;;;;;;0.68;0.30;;;;;;;;;;5025475;28;20049;-65
2023/05/03 09:23:29;;;;;;;0.40;0.40;;;;;;;;;;5043556;28;20094;-65
2023/05/03 09:25:56;;;;;;;0.52;0.20;;;;;;;;;;5043696;28;20053;-65
2023/05/03 09:28:22;;;;;;;0.40;0.35;;;;;;;;;;5026347;28;20118;-65
2023/05/03 09:30:49;;;;;;;1.80;0.60;;;;;;;;;;5042959;28;20152;-68
2023/05/03 09:33:20;;;;;;;0.95;0.50;;;;;;;;;;5026628;28;20068;-70
2023/05/03 09:35:59;;;;;;;1.67;0.75;;;;;;;;;;5026070;28;20056;-67
2023/05/03 09:38:26;;;;;;;1.27;0.50;;;;;;;;;;5043851;28;20076;-67
2023/05/03 09:40:52;;;;;;;0.57;0.32;;;;;;;;;;5047343;28;20399;-65
2023/05/03 09:43:18;;;;;;;1.85;0.52;;;;;;;;;;5029845;28;20049;-66
2023/05/03 09:45:44;;;;;;;0.63;0.30;;;;;;;;;;5029299;28;20053;-66
2023/05/03 09:48:11;;;;;;;0.50;0.40;;;;;;;;;;5029831;28;20061;-66
2023/05/03 09:50:37;;;;;;;0.85;0.40;;;;;;;;;;5043446;28;20535;-67
2023/05/03 09:53:04;;;;;;;1.55;0.70;;;;;;;;;;5027518;28;20078;-67
2023/05/03 09:55:39;;;;;;;0.28;0.28;;;;;;;;;;5046328;28;20048;-66
2023/05/03 09:58:06;;;;;;;0.35;0.35;;;;;;;;;;5026886;28;20075;-67
2023/05/03 10:00:37;;;;;;;0.70;0.60;;;;;;;;;;5027642;28;20046;-67
2023/05/03 10:03:07;;;;;;;3.05;0.85;;;;;;;;;;5028924;28;20087;-67
2023/05/03 10:05:36;;;;;;;1.33;0.57;;;;;;;;;;5024437;28;20049;-67
2023/05/03 10:08:03;;;;;;;0.73;0.30;;;;;;;;;;5053312;28;20045;-68
2023/05/03 10:10:30;;;;;;;2.25;0.75;;;;;;;;;;5025355;28;20033;-67
2023/05/03 10:12:58;;;;;;;0.40;0.40;;;;;;;;;;5017975;28;20044;-67
2023/05/03 10:15:26;;;;;;;0.40;0.40;;;;;;;;;;5027584;28;20057;-67
2023/05/03 10:17:53;;;;;;;1.92;0.52;;;;;;;;;;5020602;28;20116;-67
2023/05/03 10:20:25;;;;;;;0.45;0.30;;;;;;;;;;5034594;28;20045;-68
2023/05/03 10:23:03;;;;;;;2.03;0.40;;;;;;;;;;5009963;28;20049;-68
2023/05/03 10:25:30;;;;;;;0.57;0.30;;;;;;;;;;5047396;28;20048;-68
2023/05/03 10:28:06;;;;;;;0.28;0.20;;;;;;;;;;5023361;28;20080;-67
2023/05/03 10:30:33;;;;;;;0.47;0.35;;;;;;;;;;5026793;28;20075;-67
2023/05/03 10:32:59;;;;;;;0.30;0.30;;;;;;;;;;5008308;28;20518;-67
2023/05/03 10:35:26;;;;;;;1.38;0.50;;;;;;;;;;5027256;28;20041;-67
2023/05/03 10:37:55;;;;;;;0.25;0.20;;;;;;;;;;5026321;28;20049;-67
2023/05/03 10:40:21;;;;;;;0.32;0.30;;;;;;;;;;5024716;28;20048;-67
2023/05/03 10:42:56;;;;;;;0.60;0.38;;;;;;;;;;5006974;28;20657;-67
2023/05/03 10:45:27;;;;;;;2.47;0.40;;;;;;;;;;5025189;28;20569;-67
2023/05/03 10:48:11;;;;;;;0.35;0.30;;;;;;;;;;5024362;28;20057;-67
2023/05/03 10:50:38;;;;;;;0.63;0.30;;;;;;;;;;5007383;28;20080;-67
2023/05/03 10:53:04;;;;;;;0.52;0.40;;;;;;;;;;5007377;28;20057;-67
2023/05/03 10:55:30;;;;;;;0.60;0.30;;;;;;;;;;5008203;28;20554;-67
2023/05/03 10:57:57;;;;;;;1.60;0.38;;;;;;;;;;5008337;28;20053;-65
2023/05/03 11:00:23;;;;;;;0.38;0.30;;;;;;;;;;5008772;28;20056;-65
2023/05/03 11:03:02;;;;;;;0.75;0.43;;;;;;;;;;5007989;28;20056;-65
2023/05/03 11:05:30;;;;;;;1.85;0.38;;;;;;;;;;5026557;28;20049;-65
2023/05/03 11:08:12;;;;;;;0.82;0.40;;;;;;;;;;5026250;28;20069;-65
2023/05/03 11:10:38;;;;;;;1.45;0.30;;;;;;;;;;5008770;28;20385;-65
2023/05/03 11:13:04;;;;;;;0.50;0.30;;;;;;;;;;5026521;28;20049;-65
2023/05/03 11:15:31;;;;;;;0.90;0.43;;;;;;;;;;5007901;28;20045;-65
2023/05/03 11:17:57;;;;;;;0.28;0.20;;;;;;;;;;5026032;28;20051;-67
2023/05/03 11:20:23;;;;;;;0.57;0.30;;;;;;;;;;5026303;28;20049;-67
2023/05/03 11:22:49;;;;;;;0.45;0.40;;;;;;;;;;5025363;28;20046;-68
2023/05/03 11:25:15;;;;;;;0.52;0.50;;;;;;;;;;5008155;28;20133;-67
2023/05/03 11:27:41;;;;;;;2.60;0.70;;;;;;;;;;5026769;28;20049;-67
2023/05/03 11:30:09;;;;;;;0.43;0.30;;;;;;;;;;5024997;28;20551;-68
2023/05/03 11:32:35;;;;;;;0.82;0.40;;;;;;;;;;5026175;28;20053;-67
2023/05/03 11:35:05;;;;;;;1.48;0.30;;;;;;;;;;5008074;28;20498;-67
2023/05/03 11:37:31;;;;;;;2.42;0.50;;;;;;;;;;5007387;28;20057;-67
2023/05/03 11:39:57;;;;;;;1.95;0.47;;;;;;;;;;5007514;28;20048;-67
2023/05/03 11:42:24;;;;;;;0.28;0.28;;;;;;;;;;5026111;28;20095;-68
2023/05/03 11:44:51;;;;;;;1.67;0.68;;;;;;;;;;5007382;28;20053;-67
2023/05/03 11:47:18;;;;;;;1.23;0.40;;;;;;;;;;5025358;28;20092;-67
2023/05/03 11:49:53;;;;;;;0.47;0.30;;;;;;;;;;5008446;28;20630;-67
2023/05/03 11:52:26;;;;;;;0.85;0.55;;;;;;;;;;5024706;28;20793;-67
2023/05/03 11:54:52;;;;;;;1.45;0.50;;;;;;;;;;5007637;28;20057;-67
2023/05/03 11:57:20;;;;;;;0.65;0.47;;;;;;;;;;5025540;28;20041;-67
2023/05/03 11:59:48;;;;;;;0.52;0.30;;;;;;;;;;5024912;28;20063;-68
2023/05/03 12:02:15;;;;;;;1.30;0.47;;;;;;;;;;5025573;28;20060;-67
2023/05/03 12:04:42;;;;;;;1.30;0.50;;;;;;;;;;5025187;28;20073;-67
2023/05/03 12:07:12;;;;;;;0.82;0.57;;;;;;;;;;5025145;28;20116;-67
2023/05/03 12:09:38;;;;;;;1.05;0.40;;;;;;;;;;5007622;28;20136;-67
2023/05/03 12:12:04;;;;;;;0.28;0.28;;;;;;;;;;5024392;28;20064;-67
2023/05/03 12:14:49;;;;;;;1.63;0.60;;;;;;;;;;5007542;28;20057;-67
2023/05/03 12:17:32;;;;;;;1.17;0.73;;;;;;;;;;5007264;28;20069;-68
2023/05/03 12:20:13;;;;;;;0.50;0.50;;;;;;;;;;5024078;28;20499;-67
2023/05/03 12:22:40;;;;;;;0.77;0.70;;;;;;;;;;5007798;28;20045;-67
2023/05/03 12:25:06;;;;;;;0.68;0.40;;;;;;;;;;5007066;28;20041;-67
2023/05/03 12:27:32;;;;;;;1.83;0.52;;;;;;;;;;5007045;28;20136;-67
2023/05/03 12:29:58;;;;;;;1.73;0.80;;;;;;;;;;5024625;28;20125;-67
2023/05/03 12:32:24;;;;;;;1.35;0.60;;;;;;;;;;5007369;28;20049;-67
2023/05/03 12:34:51;;;;;;;0.47;0.43;;;;;;;;;;5006538;28;20053;-67
2023/05/03 12:37:17;;;;;;;0.73;0.45;;;;;;;;;;5006982;28;20092;-67
2023/05/03 12:39:43;;;;;;;0.40;0.30;;;;;;;;;;5024791;28;20081;-67
2023/05/03 12:42:09;;;;;;;0.40;0.40;;;;;;;;;;5006717;28;20037;-67
2023/05/03 12:44:35;;;;;;;1.27;0.65;;;;;;;;;;5025226;28;20046;-67
2023/05/03 12:47:01;;;;;;;1.45;0.60;;;;;;;;;;5005947;28;20057;-67
2023/05/03 12:49:27;;;;;;;1.60;0.47;;;;;;;;;;5007094;28;20045;-67
2023/05/03 12:51:59;;;;;;;0.73;0.45;;;;;;;;;;5024429;28;20111;-67
2023/05/03 12:54:25;;;;;;;1.33;0.67;;;;;;;;;;5024118;28;20092;-68
2023/05/03 12:56:51;;;;;;;0.73;0.70;;;;;;;;;;5024322;28;20351;-68
2023/05/03 12:59:16;;;;;;;1.10;0.85;;;;;;;;;;5006882;28;20128;-68
2023/05/03 13:01:43;;;;;;;1.45;0.47;;;;;;;;;;5024694;28;20373;-67
2023/05/03 13:04:10;;;;;;;2.80;0.77;;;;;;;;;;5006561;28;20049;-68
2023/05/03 13:06:37;;;;;;;0.52;0.30;;;;;;;;;;5006908;28;20073;-67
2023/05/03 13:09:04;;;;;;;0.80;0.40;;;;;;;;;;5005640;28;20095;-67
2023/05/03 13:11:31;;;;;;;1.45;0.68;;;;;;;;;;5006626;28;20485;-68
2023/05/03 13:13:57;;;;;;;1.15;0.60;;;;;;;;;;5024965;28;20053;-67
2023/05/03 13:16:24;;;;;;;1.42;0.77;;;;;;;;;;5034308;28;20120;-70
2023/05/03 13:18:54;;;;;;;1.63;0.88;;;;;;;;;;5029739;28;20107;-68
2023/05/03 13:21:20;;;;;;;1.67;0.70;;;;;;;;;;5021702;28;20106;-70
2023/05/03 13:23:46;;;;;;;1.48;0.70;;;;;;;;;;5029492;28;20049;-69
2023/05/03 13:26:12;;;;;;;1.27;0.65;;;;;;;;;;5048297;28;20128;-68
2023/05/03 13:28:41;;;;;;;2.15;0.38;;;;;;;;;;5030054;28;20143;-69
2023/05/03 13:31:07;;;;;;;1.83;0.60;;;;;;;;;;5029135;28;20036;-70
2023/05/03 13:33:36;;;;;;;1.63;0.68;;;;;;;;;;5048588;28;20057;-69
2023/05/03 13:36:03;;;;;;;0.50;0.50;;;;;;;;;;5028897;28;20049;-68
2023/05/03 13:38:29;;;;;;;0.63;0.55;;;;;;;;;;5047748;28;20411;-68
2023/05/03 13:40:55;;;;;;;2.05;0.60;;;;;;;;;;5047548;28;20496;-69
2023/05/03 13:43:21;;;;;;;1.33;0.47;;;;;;;;;;5029125;28;20049;-69
2023/05/03 13:45:47;;;;;;;2.67;0.90;;;;;;;;;;5047225;28;20514;-68
2023/05/03 13:48:13;;;;;;;0.73;0.50;;;;;;;;;;5029031;28;20057;-69
2023/05/03 13:50:39;;;;;;;2.45;0.70;;;;;;;;;;5045675;28;20538;-69
2023/05/03 13:53:05;;;;;;;1.67;0.68;;;;;;;;;;5046180;28;20433;-70
2023/05/03 13:55:31;;;;;;;1.67;0.70;;;;;;;;;;5046511;28;20072;-70
2023/05/03 13:57:57;;;;;;;1.80;0.50;;;;;;;;;;5027442;28;20057;-70
2023/05/03 14:00:23;;;;;;;0.40;0.40;;;;;;;;;;5046581;28;20084;-70
2023/05/03 14:02:50;;;;;;;0.75;0.47;;;;;;;;;;5046251;28;20041;-66
2023/05/03 14:05:18;;;;;;;1.50;0.50;;;;;;;;;;5044948;28;20041;-66
2023/05/03 14:07:44;;;;;;;0.85;0.70;;;;;;;;;;5046586;28;20692;-65
2023/05/03 14:10:11;;;;;;;2.05;0.52;;;;;;;;;;5028514;28;20045;-66
2023/05/03 14:12:37;;;;;;;1.42;0.73;;;;;;;;;;5028124;28;20052;-66
2023/05/03 14:15:03;;;;;;;1.50;0.73;;;;;;;;;;5046088;28;20064;-65
2023/05/03 14:17:30;;;;;;;2.67;0.60;;;;;;;;;;5028185;28;20055;-65
2023/05/03 14:19:57;;;;;;;1.13;0.50;;;;;;;;;;5027911;28;20054;-66
2023/05/03 14:22:24;;;;;;;1.67;0.57;;;;;;;;;;5052467;28;20052;-66
2023/05/03 14:24:51;;;;;;;2.08;0.68;;;;;;;;;;5047141;28;20419;-66
2023/05/03 14:27:20;;;;;;;1.73;0.75;;;;;;;;;;5044952;28;20037;-67
2023/05/03 14:29:46;;;;;;;4.35;0.98;;;;;;;;;;5050802;28;20171;-66
2023/05/03 14:32:12;;;;;;;1.20;0.60;;;;;;;;;;5007977;28;20543;-66
2023/05/03 14:34:38;;;;;;;0.77;0.70;;;;;;;;;;5014564;28;20136;-66
2023/05/03 14:37:05;;;;;;;1.60;0.68;;;;;;;;;;5045509;28;20472;-66
2023/05/03 14:39:31;;;;;;;1.38;0.60;;;;;;;;;;5045118;28;20507;-66
2023/05/03 14:41:57;;;;;;;0.75;0.52;;;;;;;;;;5045656;28;20491;-66